Dallas, Texas
Traffic Map
Current Weather Conditions
Dallas, Texas
Few Clouds
Few Clouds
59°
Feels Like: 59°
Wind Chill: 59° Ceiling: Unl
Heat Index: 59° Visibility: 10mi
Dew Point: 53° Wind: 5mph
Humidity: 81% Direction: 340° (NNW)
Pressure: 30.23in Gusts: 0mph
Raw Report DataKDAL 301253Z 34004KT 10SM FEW180 FEW250 15/12 A3023 RMK AO2 SLP231 T01500117 $
Traffic Incident Summary
Active as of:
Severity:
Category:
InformationThere was an issue retrieving the traffic information for this location. Please try a different location or try again shortly.
Advertisements
Track Severe Weather on mobile